createdAt,value
2019-03-17T00:01:23.982Z,13.39
2019-03-17T00:05:29.683Z,13.46
2019-03-17T00:09:35.367Z,13.31
2019-03-17T00:13:41.153Z,13.21
2019-03-17T00:17:46.859Z,13.13
2019-03-17T00:21:52.557Z,13.01
2019-03-17T00:25:58.247Z,12.93
2019-03-17T00:30:05.173Z,12.86
2019-03-17T00:34:10.857Z,12.86
2019-03-17T00:38:16.563Z,12.96
2019-03-17T00:42:22.327Z,13.04
2019-03-17T00:46:28.001Z,13.04
2019-03-17T00:50:33.767Z,13.01
2019-03-17T00:54:39.456Z,13.01
2019-03-17T00:58:45.157Z,13.06
2019-03-17T01:02:50.867Z,13.09
2019-03-17T01:06:56.535Z,13.06
2019-03-17T01:11:02.269Z,13.08
2019-03-17T01:15:09.173Z,13.08
2019-03-17T01:19:14.871Z,13.09
2019-03-17T01:23:20.584Z,13.16
2019-03-17T01:27:26.263Z,13.11
2019-03-17T01:31:32.025Z,13.13
2019-03-17T01:35:37.821Z,13.14
2019-03-17T01:39:43.501Z,13.19
2019-03-17T01:43:49.204Z,13.14
2019-03-17T01:47:54.930Z,13.16
2019-03-17T01:52:00.719Z,13.15
2019-03-17T01:56:06.409Z,13.18
2019-03-17T02:00:14.308Z,13.22
2019-03-17T02:04:19.973Z,13.24
2019-03-17T02:08:25.663Z,13.31
2019-03-17T02:12:31.378Z,13.31
2019-03-17T02:16:37.076Z,13.29
2019-03-17T02:20:42.789Z,13.28
2019-03-17T02:24:48.460Z,13.27
2019-03-17T02:28:54.145Z,13.26
2019-03-17T02:32:59.937Z,13.24
2019-03-17T02:37:05.634Z,13.32
2019-03-17T02:41:12.423Z,13.35
2019-03-17T02:45:18.119Z,13.28
2019-03-17T02:49:23.903Z,13.31
2019-03-17T02:53:29.586Z,13.28
2019-03-17T02:57:35.269Z,13.23
2019-03-17T03:01:42.027Z,13.25
2019-03-17T03:05:54.710Z,13.20
2019-03-17T03:09:55.096Z,13.09
2019-03-17T03:14:01.985Z,12.99
2019-03-17T03:18:08.771Z,12.84
2019-03-17T03:22:14.461Z,12.91
2019-03-17T03:26:23.220Z,12.91
2019-03-17T03:30:27.567Z,12.91
2019-03-17T03:34:33.239Z,12.95
2019-03-17T03:38:38.932Z,12.98
2019-03-17T03:42:44.614Z,12.97
2019-03-17T03:46:50.321Z,13.03
2019-03-17T03:50:56.102Z,13.03
2019-03-17T03:55:01.797Z,13.08
2019-03-17T03:59:07.485Z,13.10
2019-03-17T04:03:13.156Z,13.09
2019-03-17T04:07:18.844Z,13.03
2019-03-17T04:11:24.543Z,13.00
2019-03-17T04:15:30.401Z,13.10
2019-03-17T04:19:36.106Z,13.08
2019-03-17T04:23:41.784Z,13.05
2019-03-17T04:27:47.578Z,13.03
2019-03-17T04:31:53.279Z,13.06
2019-03-17T04:35:58.982Z,13.13
2019-03-17T04:40:06.878Z,13.17
2019-03-17T04:44:20.958Z,13.11
2019-03-17T04:48:19.937Z,13.11
2019-03-17T04:52:25.693Z,13.11
2019-03-17T04:56:31.427Z,13.12
2019-03-17T05:00:37.094Z,13.05
2019-03-17T05:04:42.776Z,13.02
2019-03-17T05:08:48.469Z,12.94
2019-03-17T05:12:54.163Z,12.89
2019-03-17T05:16:59.851Z,12.81
2019-03-17T05:21:05.655Z,12.82
2019-03-17T05:25:11.347Z,12.80
2019-03-17T05:29:17.038Z,12.76
2019-03-17T05:33:22.726Z,12.73
2019-03-17T05:37:28.407Z,12.65
2019-03-17T05:41:34.095Z,12.56
2019-03-17T05:45:39.780Z,12.47
2019-03-17T05:49:45.478Z,12.45
2019-03-17T05:53:51.170Z,12.38
2019-03-17T05:57:57.103Z,12.33
2019-03-17T09:12:19.410Z,24.59
2019-03-17T09:16:25.095Z,25.06
2019-03-17T09:20:30.774Z,25.84
2019-03-17T09:24:36.465Z,25.72
2019-03-17T09:28:42.242Z,24.23
2019-03-17T09:32:47.959Z,23.25
2019-03-17T09:36:53.645Z,22.18
2019-03-17T09:40:59.414Z,21.73
2019-03-17T09:45:09.079Z,21.19
2019-03-17T09:49:14.764Z,21.29
2019-03-17T09:53:20.453Z,21.27
2019-03-17T09:57:26.176Z,20.63
2019-03-17T10:01:31.851Z,20.22
2019-03-17T10:05:37.557Z,20.67
2019-03-17T10:09:43.242Z,21.14
2019-03-17T10:13:48.950Z,21.28
2019-03-17T10:17:54.657Z,20.99
2019-03-17T10:22:00.364Z,21.16
2019-03-17T10:26:06.145Z,21.20
2019-03-17T10:30:16.054Z,22.68
2019-03-17T10:34:21.748Z,22.46
2019-03-17T10:38:27.455Z,23.99
2019-03-17T10:42:34.327Z,24.71
2019-03-17T10:46:40.135Z,25.54
2019-03-17T10:50:49.755Z,27.74
2019-03-17T10:54:53.220Z,28.09
2019-03-17T10:58:58.922Z,28.94
2019-03-17T11:03:04.765Z,29.96
2019-03-17T11:07:10.469Z,30.18
2019-03-17T11:11:16.161Z,29.77
2019-03-17T11:15:24.043Z,30.55
2019-03-17T11:19:29.736Z,29.79
2019-03-17T11:23:35.436Z,28.60
2019-03-17T11:27:42.115Z,28.06
2019-03-17T11:31:47.843Z,26.97
2019-03-17T11:35:53.489Z,26.63
2019-03-17T11:39:59.182Z,26.08
2019-03-17T11:44:04.968Z,27.32
2019-03-17T11:48:10.673Z,26.57
2019-03-17T11:52:16.438Z,28.72
2019-03-17T11:56:22.126Z,29.64
2019-03-17T12:00:27.834Z,30.82
2019-03-17T12:04:33.561Z,28.65
2019-03-17T12:08:39.313Z,26.12
2019-03-17T12:12:44.999Z,25.94
2019-03-17T12:16:50.699Z,26.38
2019-03-17T12:20:56.386Z,27.70
2019-03-17T12:25:02.187Z,26.90
2019-03-17T12:29:08.046Z,23.58
2019-03-17T12:33:13.716Z,22.49
2019-03-17T12:37:19.545Z,22.34
2019-03-17T12:41:25.254Z,22.31
2019-03-17T12:45:30.994Z,21.62
2019-03-17T12:49:37.663Z,20.66
2019-03-17T12:53:43.445Z,20.14
2019-03-17T12:58:18.649Z,19.90
2019-03-17T13:02:24.437Z,19.55
2019-03-17T13:06:30.122Z,19.55
2019-03-17T13:20:20.393Z,20.06
2019-03-17T13:25:18.890Z,19.83
2019-03-17T13:29:24.579Z,19.63
2019-03-17T13:34:18.266Z,18.93
2019-03-17T13:38:25.596Z,18.57
2019-03-17T13:42:33.894Z,17.51
2019-03-17T13:46:39.796Z,17.09
2019-03-17T13:55:59.960Z,16.71
2019-03-17T14:00:14.415Z,16.41
2019-03-17T14:04:20.167Z,16.23
2019-03-17T14:08:25.896Z,15.90
2019-03-17T14:13:16.759Z,15.73
2019-03-17T14:17:22.453Z,15.50
2019-03-17T14:21:28.155Z,15.10
2019-03-17T14:25:36.379Z,15.01
2019-03-17T14:29:42.104Z,14.83
2019-03-17T14:34:17.932Z,14.25
2019-03-17T14:38:25.115Z,14.25
2019-03-17T14:43:15.910Z,13.68
2019-03-17T14:47:21.626Z,13.71
2019-03-17T14:51:27.358Z,13.06
2019-03-17T14:55:33.046Z,13.14
2019-03-17T14:59:38.758Z,12.54
2019-03-17T15:04:17.577Z,12.74
2019-03-17T15:08:23.318Z,12.90
2019-03-17T15:13:17.131Z,12.56
2019-03-17T15:17:22.833Z,12.32
2019-03-17T15:22:16.551Z,11.63
2019-03-17T15:26:22.257Z,11.78
2019-03-17T15:31:15.901Z,11.46
2019-03-17T15:35:21.599Z,11.41
2019-03-17T15:40:18.910Z,11.51
2019-03-17T15:44:24.606Z,11.06
2019-03-17T15:48:30.305Z,10.98
2019-03-17T15:53:17.571Z,10.90
2019-03-17T15:57:23.306Z,10.98
2019-03-17T16:01:29.021Z,11.10
2019-03-17T16:06:18.819Z,11.27
2019-03-17T16:11:16.517Z,11.42
2019-03-17T16:15:22.282Z,11.40
2019-03-17T16:19:27.989Z,10.65
2019-03-17T16:23:33.684Z,10.76
2019-03-17T16:27:39.443Z,10.86
2019-03-17T16:36:20.489Z,11.00
2019-03-17T16:40:31.545Z,10.63
2019-03-17T16:44:37.316Z,9.81
2019-03-17T16:48:43.011Z,9.51
2019-03-17T16:52:48.845Z,10.66
2019-03-17T16:56:54.580Z,10.70
2019-03-17T17:01:00.417Z,10.65
2019-03-17T17:11:18.257Z,10.27
2019-03-17T18:09:16.551Z,9.20
2019-03-17T18:24:20.212Z,8.38
2019-03-17T18:35:18.366Z,8.17
2019-03-17T18:39:24.104Z,7.84
2019-03-17T18:43:29.842Z,7.39
2019-03-17T18:47:35.478Z,7.31
2019-03-17T18:51:41.220Z,7.93
2019-03-17T18:55:46.928Z,7.84
2019-03-17T18:59:52.645Z,7.52
2019-03-17T19:03:58.432Z,7.77
2019-03-17T19:08:04.168Z,7.70
2019-03-17T19:12:09.944Z,7.55
2019-03-17T19:16:15.660Z,7.55
2019-03-17T19:20:22.806Z,7.53
2019-03-17T19:24:28.494Z,7.31
2019-03-17T19:28:34.173Z,7.54
2019-03-17T19:32:39.938Z,7.70
2019-03-17T19:36:45.635Z,7.58
2019-03-17T19:40:51.340Z,7.29
2019-03-17T19:44:57.012Z,7.38
2019-03-17T19:49:04.497Z,7.53
2019-03-17T19:53:10.271Z,7.62
2019-03-17T19:57:16.045Z,8.13
2019-03-17T20:01:21.783Z,8.20
2019-03-17T20:05:27.442Z,8.09
2019-03-17T20:09:33.175Z,7.80
2019-03-17T20:13:38.880Z,7.83
2019-03-17T20:17:44.706Z,7.74
2019-03-17T20:21:50.427Z,7.58
2019-03-17T20:25:56.108Z,7.52
2019-03-17T20:30:01.819Z,7.54
2019-03-17T20:34:08.609Z,7.50
2019-03-17T20:38:14.333Z,7.34
2019-03-17T20:42:19.993Z,7.31
2019-03-17T20:46:25.749Z,7.19
2019-03-17T20:50:31.459Z,6.94
2019-03-17T20:54:37.161Z,7.10
2019-03-17T20:58:42.854Z,7.28
2019-03-17T21:02:48.619Z,7.74
2019-03-17T21:06:54.321Z,7.39
2019-03-17T21:11:00.100Z,7.62
2019-03-17T21:15:15.850Z,7.67
2019-03-17T21:19:21.540Z,7.97
2019-03-17T21:29:17.317Z,7.37
2019-03-17T21:33:28.690Z,7.23
2019-03-17T21:37:34.412Z,7.74
2019-03-17T21:42:16.181Z,7.99
2019-03-17T21:46:21.890Z,7.89
2019-03-17T21:50:27.653Z,8.35
2019-03-17T21:54:33.314Z,7.99
2019-03-17T21:58:39.002Z,8.02
2019-03-17T22:03:18.999Z,7.69
2019-03-17T22:07:24.699Z,7.49
2019-03-17T22:11:30.412Z,7.52
2019-03-17T22:15:36.154Z,7.15
2019-03-17T22:19:41.821Z,7.05
2019-03-17T22:28:20.240Z,7.30
2019-03-17T22:32:25.994Z,7.06
2019-03-17T22:36:31.678Z,6.94
2019-03-17T22:40:37.409Z,6.98
2019-03-17T22:44:43.091Z,6.89
2019-03-17T22:48:48.841Z,6.56
2019-03-17T22:52:54.544Z,6.58
2019-03-17T22:57:00.253Z,6.37
2019-03-17T23:01:06.183Z,6.55
2019-03-17T23:05:12.153Z,6.49
2019-03-17T23:09:18.798Z,6.42
2019-03-17T23:13:24.486Z,6.48
2019-03-17T23:17:30.159Z,6.42
2019-03-17T23:21:35.833Z,6.31
2019-03-17T23:25:41.535Z,6.40
2019-03-17T23:29:47.227Z,6.27
2019-03-17T23:33:52.964Z,6.11
2019-03-17T23:37:58.668Z,6.10
2019-03-17T23:42:04.430Z,6.08
2019-03-17T23:46:10.134Z,5.90
2019-03-17T23:50:16.238Z,5.89
2019-03-17T23:54:21.944Z,5.86
2019-03-17T23:58:27.622Z,5.88
